Time;durP1;ratioP1;P1;durP2;ratioP2;P2;SDS_P1;SDS_P2;PMS_P1;PMS_P2;Temp;Humidity;BMP_temperature;BMP_pressure;BME280_temperature;BME280_humidity;BME280_pressure;Samples;Min_cycle;Max_cycle;Signal;HPM_P1;HPM_P2
2022/09/08 00:00:40;;;;;;;0.00;0.00;;;17.30;99.90;;;;;;5021436;28;20468;-71
2022/09/08 00:03:12;;;;;;;0.00;0.00;;;17.30;99.90;;;;;;5020764;28;20454;-71
2022/09/08 00:05:48;;;;;;;0.00;0.00;;;17.30;99.90;;;;;;5021580;28;20450;-71
2022/09/08 00:08:17;;;;;;;0.00;0.00;;;17.30;99.90;;;;;;5021393;28;20446;-71
2022/09/08 00:10:44;;;;;;;0.00;0.00;;;17.30;99.90;;;;;;5020925;28;20458;-71
2022/09/08 00:13:12;;;;;;;0.00;0.00;;;17.20;99.90;;;;;;5021069;28;20477;-71
2022/09/08 00:15:40;;;;;;;0.00;0.00;;;17.20;99.90;;;;;;5021106;28;20441;-71
2022/09/08 00:18:08;;;;;;;0.00;0.00;;;17.30;99.90;;;;;;5021334;28;20548;-71
2022/09/08 00:20:36;;;;;;;0.00;0.00;;;17.30;99.90;;;;;;5021121;28;21045;-72
2022/09/08 00:23:05;;;;;;;0.00;0.00;;;17.30;99.90;;;;;;5020699;28;20519;-72
2022/09/08 00:25:33;;;;;;;0.00;0.00;;;17.30;99.90;;;;;;5021425;28;20441;-72
2022/09/08 00:28:01;;;;;;;0.00;0.00;;;17.30;99.90;;;;;;5020259;28;21007;-72
2022/09/08 00:30:30;;;;;;;0.00;0.00;;;17.30;99.90;;;;;;5020872;28;20461;-72
2022/09/08 00:32:58;;;;;;;0.00;0.00;;;17.30;99.90;;;;;;5020180;28;20481;-72
2022/09/08 00:35:26;;;;;;;0.00;0.00;;;17.30;99.90;;;;;;5020990;28;20437;-72
2022/09/08 00:37:54;;;;;;;0.00;0.00;;;17.30;99.90;;;;;;5020530;28;20489;-72
2022/09/08 00:40:25;;;;;;;0.00;0.00;;;17.30;99.90;;;;;;5020365;28;20478;-73
2022/09/08 00:43:01;;;;;;;0.00;0.00;;;17.30;99.90;;;;;;5020720;28;20504;-72
2022/09/08 00:45:37;;;;;;;0.00;0.00;;;17.20;99.90;;;;;;5020645;28;20565;-72
2022/09/08 00:48:08;;;;;;;0.00;0.00;;;17.10;99.90;;;;;;5020469;28;20445;-73
2022/09/08 00:50:36;;;;;;;0.00;0.00;;;17.10;99.90;;;;;;5020477;28;20458;-72
2022/09/08 00:53:10;;;;;;;0.00;0.00;;;17.00;99.90;;;;;;5019909;28;20548;-73
2022/09/08 00:55:40;;;;;;;0.00;0.00;;;17.00;99.90;;;;;;5020488;28;20626;-73
2022/09/08 00:58:08;;;;;;;0.00;0.00;;;17.00;99.90;;;;;;5020669;28;20726;-73
2022/09/08 01:00:37;;;;;;;0.00;0.00;;;17.00;99.90;;;;;;5020130;28;20663;-73
2022/09/08 01:03:08;;;;;;;0.00;0.00;;;16.90;99.90;;;;;;5019138;28;20989;-72
2022/09/08 01:05:47;;;;;;;0.00;0.00;;;16.90;99.90;;;;;;5019213;28;20449;-73
2022/09/08 01:14:05;;;;;;;0.00;0.00;;;16.80;99.90;;;;;;5018571;28;21040;-71
2022/09/08 01:16:40;;;;;;;0.00;0.00;;;16.80;99.90;;;;;;5019640;28;20999;-71
2022/09/08 01:19:16;;;;;;;0.00;0.00;;;16.70;99.90;;;;;;5019458;28;20457;-71
2022/09/08 01:21:57;;;;;;;0.00;0.00;;;16.70;99.90;;;;;;5019073;28;20482;-71
2022/09/08 01:24:45;;;;;;;0.00;0.00;;;16.70;99.90;;;;;;5019145;28;20436;-71
2022/09/08 01:27:22;;;;;;;0.00;0.00;;;16.70;99.90;;;;;;5019471;28;20857;-71
2022/09/08 01:29:56;;;;;;;0.00;0.00;;;16.60;99.90;;;;;;5019373;28;20460;-70
2022/09/08 01:32:24;;;;;;;0.00;0.00;;;16.60;99.90;;;;;;5019383;28;20452;-70
2022/09/08 01:34:52;;;;;;;0.00;0.00;;;16.50;99.90;;;;;;5018674;28;20893;-70
2022/09/08 01:37:20;;;;;;;0.00;0.00;;;16.60;99.90;;;;;;5019277;28;20523;-70
2022/09/08 01:39:48;;;;;;;0.00;0.00;;;16.50;99.90;;;;;;5018622;28;21004;-70
2022/09/08 01:42:17;;;;;;;0.00;0.00;;;16.50;99.90;;;;;;5018990;28;21000;-71
2022/09/08 01:44:45;;;;;;;0.00;0.00;;;16.50;99.90;;;;;;5019023;28;20449;-71
2022/09/08 01:47:13;;;;;;;0.00;0.00;;;16.50;99.90;;;;;;5019071;28;21014;-71
2022/09/08 01:49:40;;;;;;;0.00;0.00;;;16.40;99.90;;;;;;5018875;28;20519;-73
2022/09/08 01:52:08;;;;;;;0.00;0.00;;;16.40;99.90;;;;;;5019202;28;20449;-73
2022/09/08 01:54:36;;;;;;;0.00;0.00;;;16.40;99.90;;;;;;5018986;28;20482;-74
2022/09/08 01:57:04;;;;;;;0.00;0.00;;;16.40;99.90;;;;;;5018977;28;20441;-72
2022/09/08 01:59:33;;;;;;;0.00;0.00;;;16.40;99.90;;;;;;5018903;28;20756;-72
2022/09/08 02:02:02;;;;;;;0.00;0.00;;;16.40;99.90;;;;;;5018514;28;20491;-72
2022/09/08 02:04:30;;;;;;;0.00;0.00;;;16.40;99.90;;;;;;5018814;28;21007;-72
2022/09/08 02:06:58;;;;;;;0.00;0.00;;;16.40;99.90;;;;;;5018792;28;20452;-72
2022/09/08 02:09:26;;;;;;;0.00;0.00;;;16.30;99.90;;;;;;5018389;28;20457;-72
2022/09/08 02:11:54;;;;;;;0.00;0.00;;;16.30;99.90;;;;;;5018946;28;21048;-72
2022/09/08 02:14:22;;;;;;;0.00;0.00;;;16.30;99.90;;;;;;5017878;28;20480;-71
2022/09/08 02:23:14;;;;;;;0.00;0.00;;;16.30;99.90;;;;;;5056174;28;20474;-89
2022/09/08 02:25:41;;;;;;;0.00;0.00;;;16.20;99.90;;;;;;5056262;28;20539;-90
2022/09/08 02:28:11;;;;;;;0.00;0.00;;;16.20;99.90;;;;;;5056180;28;20458;-89
2022/09/08 02:30:40;;;;;;;0.00;0.00;;;16.20;99.90;;;;;;5056471;28;20791;-90
2022/09/08 02:33:08;;;;;;;0.00;0.00;;;16.20;99.90;;;;;;5055199;28;20474;-90
2022/09/08 02:35:36;;;;;;;0.00;0.00;;;16.20;99.90;;;;;;5053734;28;21144;-90
2022/09/08 02:38:03;;;;;;;0.00;0.00;;;16.20;99.90;;;;;;5051975;28;20448;-92
2022/09/08 02:40:33;;;;;;;0.00;0.00;;;16.10;99.90;;;;;;5057536;28;20448;-90
2022/09/08 02:43:03;;;;;;;0.00;0.00;;;16.10;99.90;;;;;;5064165;28;20505;-90
2022/09/08 02:45:31;;;;;;;0.00;0.00;;;16.10;99.90;;;;;;5064756;28;20866;-93
2022/09/08 02:47:59;;;;;;;0.00;0.00;;;16.10;99.90;;;;;;5067831;28;20444;-91
2022/09/08 02:50:28;;;;;;;0.00;0.00;;;16.10;99.90;;;;;;5066479;28;20511;-93
2022/09/08 02:52:56;;;;;;;0.00;0.00;;;16.10;99.90;;;;;;5067971;28;20540;-91
2022/09/08 02:55:24;;;;;;;0.00;0.00;;;16.10;99.90;;;;;;5060637;28;20479;-91
2022/09/08 02:57:53;;;;;;;0.00;0.00;;;16.10;99.90;;;;;;5057892;28;20460;-93
2022/09/08 03:00:30;;;;;;;0.00;0.00;;;16.10;99.90;;;;;;5057612;28;20440;-93
2022/09/08 03:02:58;;;;;;;0.00;0.00;;;16.10;99.90;;;;;;5056402;28;20474;-90
2022/09/08 03:05:27;;;;;;;0.00;0.00;;;16.00;99.90;;;;;;5056727;28;20429;-90
2022/09/08 03:07:57;;;;;;;0.00;0.00;;;16.00;99.90;;;;;;5056741;28;20452;-91
2022/09/08 03:10:25;;;;;;;0.00;0.00;;;16.00;99.90;;;;;;5068261;28;20448;-91
2022/09/08 03:12:56;;;;;;;0.00;0.00;;;16.10;99.90;;;;;;5069774;28;20453;-91
2022/09/08 03:15:26;;;;;;;0.00;0.00;;;16.10;99.90;;;;;;5071506;28;20464;-88
2022/09/08 03:17:55;;;;;;;0.00;0.00;;;16.10;99.90;;;;;;5071519;28;20431;-89
2022/09/08 03:20:24;;;;;;;0.00;0.00;;;16.10;99.90;;;;;;5067875;28;20474;-91
2022/09/08 03:22:52;;;;;;;0.00;0.00;;;16.10;99.90;;;;;;5058116;28;20495;-90
2022/09/08 03:25:20;;;;;;;0.00;0.00;;;16.10;99.90;;;;;;5059074;28;20456;-91
2022/09/08 03:27:48;;;;;;;0.00;0.00;;;16.10;99.90;;;;;;5059180;28;20456;-92
2022/09/08 03:30:18;;;;;;;0.00;0.00;;;16.10;99.90;;;;;;5061948;28;20498;-91
2022/09/08 03:32:47;;;;;;;0.00;0.00;;;16.10;99.90;;;;;;5061664;28;20499;-90
2022/09/08 03:35:17;;;;;;;0.00;0.00;;;16.10;99.90;;;;;;5060148;28;20746;-89
2022/09/08 03:37:47;;;;;;;0.00;0.00;;;16.10;99.90;;;;;;5060545;28;20424;-90
2022/09/08 03:40:18;;;;;;;0.00;0.00;;;16.10;99.90;;;;;;5060601;28;20500;-90
2022/09/08 03:42:46;;;;;;;0.00;0.00;;;16.10;99.90;;;;;;5061024;28;20460;-90
2022/09/08 03:45:17;;;;;;;0.00;0.00;;;16.20;99.90;;;;;;5061834;28;20455;-91
2022/09/08 03:47:46;;;;;;;0.00;0.00;;;16.20;99.90;;;;;;5061175;28;21088;-91
2022/09/08 03:50:16;;;;;;;0.00;0.00;;;16.30;99.90;;;;;;5061738;28;20505;-89
2022/09/08 03:52:45;;;;;;;0.00;0.00;;;16.30;99.90;;;;;;5062784;28;20998;-92
2022/09/08 03:55:13;;;;;;;0.00;0.00;;;16.30;99.90;;;;;;5072634;28;20468;-90
2022/09/08 03:57:41;;;;;;;0.00;0.00;;;16.30;99.90;;;;;;5067997;28;20432;-91
2022/09/08 04:00:10;;;;;;;0.00;0.00;;;16.30;99.90;;;;;;5063569;28;20481;-93
2022/09/08 04:02:40;;;;;;;0.00;0.00;;;16.30;99.90;;;;;;5062226;28;20476;-92
2022/09/08 04:05:09;;;;;;;0.00;0.00;;;16.20;99.90;;;;;;5061468;28;20531;-91
2022/09/08 04:07:39;;;;;;;0.00;0.00;;;16.20;99.90;;;;;;5060554;28;20637;-91
2022/09/08 04:10:08;;;;;;;0.00;0.00;;;16.20;99.90;;;;;;5061053;28;20507;-91
2022/09/08 04:12:44;;;;;;;0.00;0.00;;;16.20;99.90;;;;;;5060554;28;20468;-91
2022/09/08 04:15:13;;;;;;;0.00;0.00;;;16.20;99.90;;;;;;5060532;28;20482;-89
2022/09/08 04:17:42;;;;;;;0.00;0.00;;;16.20;99.90;;;;;;5060026;28;20442;-92
2022/09/08 04:20:16;;;;;;;0.00;0.00;;;16.20;99.90;;;;;;5059858;28;20632;-90
2022/09/08 04:22:44;;;;;;;0.00;0.00;;;16.20;99.90;;;;;;5061538;28;20571;-91
2022/09/08 04:25:13;;;;;;;0.00;0.00;;;16.20;99.90;;;;;;5058951;28;20460;-90
2022/09/08 04:27:43;;;;;;;0.00;0.00;;;16.20;99.90;;;;;;5060411;28;20488;-90
2022/09/08 04:30:12;;;;;;;0.00;0.00;;;16.20;99.90;;;;;;5061284;28;20418;-92
2022/09/08 04:32:43;;;;;;;0.00;0.00;;;16.20;99.90;;;;;;5062197;28;20488;-92
2022/09/08 04:35:11;;;;;;;0.00;0.00;;;16.20;99.90;;;;;;5059853;28;20623;-91
2022/09/08 04:37:42;;;;;;;0.00;0.00;;;16.20;99.90;;;;;;5059608;28;20455;-91
2022/09/08 04:40:10;;;;;;;0.00;0.00;;;16.30;99.90;;;;;;5058756;28;20951;-91
2022/09/08 04:42:39;;;;;;;0.00;0.00;;;16.30;99.90;;;;;;5057522;28;20480;-90
2022/09/08 04:45:07;;;;;;;0.00;0.00;;;16.20;99.90;;;;;;5057894;28;20742;-90
2022/09/08 04:47:35;;;;;;;0.00;0.00;;;16.30;99.90;;;;;;5057786;28;20469;-91
2022/09/08 04:50:06;;;;;;;0.00;0.00;;;16.30;99.90;;;;;;5055685;28;20628;-92
2022/09/08 04:52:34;;;;;;;0.00;0.00;;;16.40;99.90;;;;;;5054991;28;20766;-91
2022/09/08 04:55:02;;;;;;;0.00;0.00;;;16.40;99.90;;;;;;5057136;28;20463;-92
2022/09/08 04:57:30;;;;;;;0.00;0.00;;;16.40;99.90;;;;;;5068130;28;20469;-91
2022/09/08 04:59:59;;;;;;;0.00;0.00;;;16.40;99.90;;;;;;5063193;28;20528;-91
2022/09/08 05:02:29;;;;;;;0.00;0.00;;;16.40;99.90;;;;;;5054001;28;20955;-93
2022/09/08 05:05:00;;;;;;;0.00;0.00;;;16.40;99.90;;;;;;5057512;28;20521;-92
2022/09/08 05:07:40;;;;;;;0.00;0.00;;;16.40;99.90;;;;;;5059546;28;20513;-90
2022/09/08 05:10:09;;;;;;;0.00;0.00;;;16.40;99.90;;;;;;5059694;28;20526;-90
2022/09/08 05:12:37;;;;;;;0.00;0.00;;;16.30;99.90;;;;;;5057933;28;20737;-92
2022/09/08 05:15:06;;;;;;;0.00;0.00;;;16.30;99.90;;;;;;5059051;28;20842;-92
2022/09/08 05:17:37;;;;;;;0.00;0.00;;;16.30;99.90;;;;;;5061066;28;20643;-90
2022/09/08 05:20:15;;;;;;;0.00;0.00;;;16.30;99.90;;;;;;5060162;28;20484;-91
2022/09/08 05:22:50;;;;;;;0.00;0.00;;;16.20;99.90;;;;;;5058382;28;21122;-90
2022/09/08 05:25:18;;;;;;;0.00;0.00;;;16.20;99.90;;;;;;5055615;28;20471;-87
2022/09/08 05:27:48;;;;;;;0.00;0.00;;;16.20;99.90;;;;;;5055026;28;20457;-90
2022/09/08 05:30:16;;;;;;;0.00;0.00;;;16.20;99.90;;;;;;5054185;28;20465;-89
2022/09/08 05:32:45;;;;;;;0.00;0.00;;;16.20;99.90;;;;;;5054468;28;21022;-90
2022/09/08 05:35:13;;;;;;;0.00;0.00;;;16.20;99.90;;;;;;5054490;28;20914;-90
2022/09/08 05:37:41;;;;;;;0.00;0.00;;;16.30;99.90;;;;;;5055649;28;20448;-89
2022/09/08 05:40:11;;;;;;;0.00;0.00;;;16.30;99.90;;;;;;5056918;28;20456;-89
2022/09/08 05:42:39;;;;;;;0.00;0.00;;;16.40;99.90;;;;;;5058037;28;20471;-90
2022/09/08 05:45:08;;;;;;;0.00;0.00;;;16.50;99.90;;;;;;5057338;28;20452;-89
2022/09/08 05:47:36;;;;;;;0.00;0.00;;;16.50;99.90;;;;;;5058565;28;20540;-90
2022/09/08 05:50:05;;;;;;;0.00;0.00;;;16.60;99.90;;;;;;5057808;28;20506;-90
2022/09/08 05:52:33;;;;;;;0.00;0.00;;;16.60;99.90;;;;;;5057697;28;20471;-90
2022/09/08 05:55:01;;;;;;;0.00;0.00;;;16.70;99.90;;;;;;5064112;28;20658;-89
2022/09/08 05:57:32;;;;;;;0.00;0.00;;;16.70;99.90;;;;;;5065593;28;20472;-88
2022/09/08 06:00:00;;;;;;;0.00;0.00;;;16.80;99.90;;;;;;5066839;28;20436;-90
2022/09/08 06:02:28;;;;;;;0.00;0.00;;;16.90;99.90;;;;;;5058369;28;20721;-90
2022/09/08 06:04:56;;;;;;;0.00;0.00;;;16.90;99.90;;;;;;5056761;28;20773;-90
2022/09/08 06:07:25;;;;;;;0.00;0.00;;;17.00;99.90;;;;;;5056349;28;20620;-89
2022/09/08 06:09:53;;;;;;;0.00;0.00;;;17.00;99.90;;;;;;5057714;28;20461;-90
2022/09/08 06:12:21;;;;;;;0.00;0.00;;;17.00;99.90;;;;;;5065696;28;20476;-90
2022/09/08 06:14:50;;;;;;;0.00;0.00;;;17.10;99.90;;;;;;5063283;28;20523;-90
2022/09/08 06:17:20;;;;;;;0.00;0.00;;;17.20;99.90;;;;;;5065370;28;20461;-90
2022/09/08 06:19:48;;;;;;;0.00;0.00;;;17.30;99.90;;;;;;5062418;28;20440;-89
2022/09/08 06:22:17;;;;;;;0.00;0.00;;;17.30;99.90;;;;;;5056640;28;20485;-89
2022/09/08 06:24:45;;;;;;;0.00;0.00;;;17.40;99.90;;;;;;5054908;28;20455;-89
2022/09/08 06:27:21;;;;;;;0.00;0.00;;;17.40;99.90;;;;;;5063927;28;20464;-90
2022/09/08 06:30:02;;;;;;;0.00;0.00;;;17.40;99.90;;;;;;5071800;28;20412;-91
2022/09/08 06:32:34;;;;;;;0.00;0.00;;;17.50;99.90;;;;;;5052334;28;20521;-88
2022/09/08 06:35:08;;;;;;;0.00;0.00;;;17.50;99.90;;;;;;5053033;28;20758;-90
2022/09/08 06:37:43;;;;;;;0.00;0.00;;;17.60;99.90;;;;;;5052242;28;20496;-90
2022/09/08 06:40:16;;;;;;;0.00;0.00;;;17.60;99.90;;;;;;5059138;28;20441;-90
2022/09/08 06:42:50;;;;;;;0.00;0.00;;;17.60;99.90;;;;;;5065356;28;20540;-89
2022/09/08 06:45:26;;;;;;;0.00;0.00;;;17.70;99.90;;;;;;5054945;28;20522;-91
2022/09/08 06:48:25;;;;;;;0.00;0.00;;;17.60;99.90;;;;;;5054446;28;20581;-91
2022/09/08 06:51:08;;;;;;;0.00;0.00;;;17.60;99.90;;;;;;5056164;28;20471;-91
2022/09/08 06:53:42;;;;;;;0.00;0.00;;;17.60;99.90;;;;;;5054042;28;20495;-91
2022/09/08 06:56:23;;;;;;;0.00;0.00;;;17.70;99.90;;;;;;5051979;28;20829;-89
2022/09/08 06:59:39;;;;;;;0.00;0.00;;;17.70;99.90;;;;;;5058296;28;20459;-91
2022/09/08 07:02:32;;;;;;;0.00;0.00;;;17.70;99.90;;;;;;5042407;28;20496;-91
2022/09/08 07:05:06;;;;;;;0.00;0.00;;;17.70;99.90;;;;;;5056006;28;20898;-91
2022/09/08 07:07:41;;;;;;;0.00;0.00;;;17.80;99.90;;;;;;5055866;28;20819;-91
2022/09/08 07:10:18;;;;;;;0.00;0.00;;;17.80;99.90;;;;;;5055858;28;20460;-90
2022/09/08 07:12:56;;;;;;;0.00;0.00;;;17.80;99.90;;;;;;5055504;28;20477;-90
2022/09/08 07:15:44;;;;;;;0.00;0.00;;;17.80;99.90;;;;;;5056247;28;20485;-91
2022/09/08 07:18:21;;;;;;;0.00;0.00;;;17.80;99.90;;;;;;5056842;28;20466;-92
2022/09/08 07:20:52;;;;;;;0.00;0.00;;;17.90;99.90;;;;;;5057420;28;20448;-91
2022/09/08 07:23:27;;;;;;;0.00;0.00;;;17.90;99.90;;;;;;5053800;28;20448;-91
2022/09/08 07:25:58;;;;;;;0.00;0.00;;;17.90;99.90;;;;;;5051153;28;20483;-91
2022/09/08 07:28:33;;;;;;;0.00;0.00;;;17.90;99.90;;;;;;5054755;28;20900;-91
2022/09/08 07:31:03;;;;;;;0.00;0.00;;;18.00;99.90;;;;;;5056094;28;20600;-91
2022/09/08 07:33:38;;;;;;;0.00;0.00;;;18.00;99.90;;;;;;5057430;28;20504;-91
2022/09/08 07:36:15;;;;;;;0.00;0.00;;;18.10;99.90;;;;;;5056859;28;20441;-91
2022/09/08 07:38:48;;;;;;;0.00;0.00;;;18.10;99.90;;;;;;5040362;28;20697;-90
2022/09/08 07:41:21;;;;;;;0.00;0.00;;;18.10;99.90;;;;;;5035931;28;20612;-90
2022/09/08 07:43:53;;;;;;;0.00;0.00;;;18.20;99.90;;;;;;5033705;28;20619;-88
2022/09/08 07:46:44;;;;;;;0.00;0.00;;;18.20;99.90;;;;;;5034799;28;20470;-91
2022/09/08 07:49:24;;;;;;;0.00;0.00;;;18.20;99.90;;;;;;5033872;28;20445;-91
2022/09/08 07:52:01;;;;;;;0.00;0.00;;;18.30;99.90;;;;;;5037143;28;20521;-91
2022/09/08 07:54:50;;;;;;;0.00;0.00;;;18.20;99.90;;;;;;5035164;28;20727;-91
2022/09/08 07:57:27;;;;;;;0.00;0.00;;;18.20;99.90;;;;;;5035749;28;20516;-92
2022/09/08 08:00:15;;;;;;;0.00;0.00;;;18.30;99.90;;;;;;5037768;28;20914;-91
2022/09/08 08:03:08;;;;;;;0.00;0.00;;;18.30;99.90;;;;;;5043841;28;20456;-90
2022/09/08 08:05:46;;;;;;;0.00;0.00;;;18.40;99.90;;;;;;5040120;28;20970;-91
2022/09/08 08:08:21;;;;;;;0.00;0.00;;;18.40;99.90;;;;;;5035200;28;20443;-90
2022/09/08 08:10:59;;;;;;;0.00;0.00;;;18.40;99.90;;;;;;5035287;28;20460;-92
2022/09/08 08:13:43;;;;;;;0.00;0.00;;;18.40;99.90;;;;;;5037176;28;20462;-90
2022/09/08 08:16:30;;;;;;;0.00;0.00;;;18.40;99.90;;;;;;5039174;28;20906;-90
2022/09/08 08:19:09;;;;;;;0.00;0.00;;;18.40;99.90;;;;;;5037245;28;20458;-91
2022/09/08 08:21:49;;;;;;;0.00;0.00;;;18.40;99.90;;;;;;5050056;28;20621;-88
2022/09/08 08:24:32;;;;;;;0.00;0.00;;;18.40;99.90;;;;;;5055474;28;20488;-91
2022/09/08 08:27:20;;;;;;;0.00;0.00;;;18.40;99.90;;;;;;5045653;28;20607;-92
2022/09/08 08:30:18;;;;;;;0.00;0.00;;;18.40;99.90;;;;;;5027052;28;20470;-90
2022/09/08 08:36:18;;;;;;;0.00;0.00;;;18.30;99.90;;;;;;5039379;28;20520;-92
2022/09/08 08:38:51;;;;;;;0.00;0.00;;;18.30;99.90;;;;;;5038274;28;20595;-90
2022/09/08 08:41:33;;;;;;;0.00;0.00;;;18.30;99.90;;;;;;5039552;28;20543;-89
2022/09/08 08:45:24;;;;;;;0.00;0.00;;;18.30;99.90;;;;;;5038288;28;20439;-90
2022/09/08 08:48:46;;;;;;;0.00;0.00;;;18.20;99.90;;;;;;5035784;28;20447;-90
2022/09/08 08:51:34;;;;;;;0.00;0.00;;;18.20;99.90;;;;;;5037857;28;20478;-89
2022/09/08 08:54:24;;;;;;;0.00;0.00;;;18.20;99.90;;;;;;5037054;28;20443;-91
2022/09/08 08:57:13;;;;;;;0.00;0.00;;;18.20;99.90;;;;;;5035593;28;20462;-91
2022/09/08 09:00:14;;;;;;;0.00;0.00;;;18.20;99.90;;;;;;5036971;28;20447;-86
2022/09/08 09:03:26;;;;;;;0.00;0.00;;;18.20;99.90;;;;;;5032823;28;20677;-87
2022/09/08 09:06:23;;;;;;;0.00;0.00;;;18.30;99.90;;;;;;5059212;28;20554;-88
2022/09/08 09:09:44;;;;;;;0.00;0.00;;;18.30;99.90;;;;;;5052115;28;20442;-89
2022/09/08 09:12:39;;;;;;;0.00;0.00;;;18.30;99.90;;;;;;5042291;28;20884;-89
2022/09/08 09:15:46;;;;;;;0.00;0.00;;;18.30;99.90;;;;;;5053896;28;20540;-87
2022/09/08 09:19:23;;;;;;;0.00;0.00;;;18.30;99.90;;;;;;5052499;28;20551;-91
2022/09/08 09:22:17;;;;;;;0.00;0.00;;;18.40;99.90;;;;;;4998649;28;20512;-92
2022/09/08 09:25:10;;;;;;;0.00;0.00;;;18.50;99.90;;;;;;5055113;28;20467;-91
2022/09/08 09:27:48;;;;;;;0.00;0.00;;;18.60;99.90;;;;;;5058178;28;20523;-92
2022/09/08 09:30:37;;;;;;;0.00;0.00;;;18.70;99.90;;;;;;5057834;28;20559;-91
2022/09/08 09:33:34;;;;;;;0.00;0.00;;;18.80;99.90;;;;;;5058511;28;20676;-91
2022/09/08 09:36:32;;;;;;;0.00;0.00;;;18.90;99.90;;;;;;5057163;28;20482;-92
2022/09/08 09:39:25;;;;;;;0.00;0.00;;;19.10;99.90;;;;;;5056587;28;20483;-90
2022/09/08 09:42:28;;;;;;;0.00;0.00;;;19.20;99.90;;;;;;4989636;28;20486;-90
2022/09/08 09:45:30;;;;;;;0.00;0.00;;;19.30;99.90;;;;;;5012316;28;20614;-94
2022/09/08 09:49:00;;;;;;;0.00;0.00;;;19.40;99.90;;;;;;4980667;28;20841;-90
2022/09/08 09:52:38;;;;;;;0.00;0.00;;;19.50;99.90;;;;;;4896776;29;20546;-90
2022/09/08 10:03:44;;;;;;;0.00;0.00;;;20.00;99.90;;;;;;5064491;22;20540;-71
2022/09/08 10:06:37;;;;;;;0.00;0.00;;;20.00;99.90;;;;;;5053511;28;20447;-69
2022/09/08 10:10:06;;;;;;;0.00;0.00;;;20.10;99.90;;;;;;5054473;28;20546;-68
2022/09/08 10:13:10;;;;;;;0.00;0.00;;;20.10;99.90;;;;;;4945805;28;20571;-70
2022/09/08 10:16:11;;;;;;;0.00;0.00;;;20.20;99.90;;;;;;5014097;28;20451;-70
2022/09/08 10:19:14;;;;;;;0.00;0.00;;;20.20;99.90;;;;;;5049509;28;20475;-70
2022/09/08 10:22:22;;;;;;;0.00;0.00;;;20.20;99.90;;;;;;5048394;28;20731;-70
2022/09/08 10:25:15;;;;;;;0.00;0.00;;;20.10;99.90;;;;;;5048675;28;20471;-70
2022/09/08 10:28:30;;;;;;;0.00;0.00;;;20.10;99.90;;;;;;5043228;28;20470;-70
2022/09/08 10:31:28;;;;;;;0.00;0.00;;;20.00;99.90;;;;;;5046065;28;20462;-69
2022/09/08 10:34:45;;;;;;;0.00;0.00;;;20.10;99.90;;;;;;5056281;28;20444;-71
2022/09/08 10:37:29;;;;;;;0.00;0.00;;;20.10;99.90;;;;;;5044152;28;20444;-70
2022/09/08 10:40:18;;;;;;;0.00;0.00;;;20.10;99.90;;;;;;5046962;28;20488;-69
2022/09/08 10:42:49;;;;;;;0.00;0.00;;;20.00;99.90;;;;;;5049622;28;20955;-70
2022/09/08 10:45:40;;;;;;;0.00;0.00;;;19.90;99.90;;;;;;5036008;28;20491;-71
2022/09/08 10:48:40;;;;;;;0.00;0.00;;;19.80;99.90;;;;;;5034625;28;20682;-72
2022/09/08 10:51:56;;;;;;;0.00;0.00;;;19.70;99.90;;;;;;5058657;28;20977;-72
2022/09/08 10:54:48;;;;;;;0.00;0.00;;;19.50;99.90;;;;;;5039239;28;20459;-70
2022/09/08 10:57:26;;;;;;;0.00;0.00;;;19.30;99.90;;;;;;5018323;28;20959;-70
2022/09/08 11:00:05;;;;;;;0.00;0.00;;;19.20;99.90;;;;;;5034120;28;20486;-70
2022/09/08 11:02:35;;;;;;;0.00;0.00;;;19.00;99.90;;;;;;5038493;28;20978;-70
2022/09/08 11:05:45;;;;;;;0.00;0.00;;;18.90;99.90;;;;;;5041120;28;20640;-72
2022/09/08 11:08:55;;;;;;;0.00;0.00;;;18.70;99.90;;;;;;5045467;28;20451;-71
2022/09/08 11:12:00;;;;;;;0.00;0.00;;;18.50;99.90;;;;;;5051804;28;20682;-70
2022/09/08 11:15:06;;;;;;;0.00;0.00;;;18.30;99.90;;;;;;5047027;28;20468;-70
2022/09/08 11:17:42;;;;;;;0.00;0.00;;;18.00;99.90;;;;;;5025160;28;20503;-71
2022/09/08 11:20:16;;;;;;;0.00;0.00;;;17.90;99.90;;;;;;5053107;28;20777;-68
2022/09/08 11:23:04;;;;;;;0.00;0.00;;;17.70;99.90;;;;;;5056854;28;20460;-71
2022/09/08 11:25:48;;;;;;;0.00;0.00;;;17.60;99.90;;;;;;5018339;28;20441;-71
2022/09/08 11:28:36;;;;;;;0.00;0.00;;;17.60;99.90;;;;;;5030674;28;20460;-71
2022/09/08 11:31:18;;;;;;;0.00;0.00;;;17.50;99.90;;;;;;5046892;28;20471;-71
2022/09/08 11:34:13;;;;;;;0.00;0.00;;;17.50;99.90;;;;;;5040013;28;20458;-71
2022/09/08 11:37:01;;;;;;;0.00;0.00;;;17.50;99.90;;;;;;5027027;28;20980;-71
2022/09/08 11:39:43;;;;;;;0.00;0.00;;;17.50;99.90;;;;;;5034428;28;20937;-71
2022/09/08 11:42:28;;;;;;;0.00;0.00;;;17.50;99.90;;;;;;5037742;28;20461;-71
2022/09/08 11:45:08;;;;;;;0.00;0.00;;;17.50;99.90;;;;;;5055143;28;20579;-70
2022/09/08 11:47:53;;;;;;;0.00;0.00;;;17.60;99.90;;;;;;5046376;28;20574;-71
2022/09/08 11:50:50;;;;;;;0.00;0.00;;;17.70;99.90;;;;;;5048559;28;20481;-71
2022/09/08 11:53:53;;;;;;;0.00;0.00;;;17.80;99.90;;;;;;5035782;28;20464;-71
2022/09/08 11:57:14;;;;;;;0.00;0.00;;;17.80;99.90;;;;;;5045280;28;20798;-72
2022/09/08 12:00:10;;;;;;;0.00;0.00;;;17.80;99.90;;;;;;5055313;28;20483;-72
2022/09/08 12:03:06;;;;;;;0.00;0.00;;;17.90;99.90;;;;;;5059914;28;20461;-72
2022/09/08 12:05:55;;;;;;;0.00;0.00;;;17.90;99.90;;;;;;5048359;28;20749;-72
2022/09/08 12:09:08;;;;;;;0.00;0.00;;;17.90;99.90;;;;;;5043611;28;21037;-71
2022/09/08 12:11:57;;;;;;;0.00;0.00;;;18.00;99.90;;;;;;5040149;28;20449;-70
2022/09/08 12:14:33;;;;;;;0.00;0.00;;;18.00;99.90;;;;;;5048434;28;20465;-70
2022/09/08 12:17:13;;;;;;;0.00;0.00;;;18.00;99.90;;;;;;5036854;28;20546;-72
2022/09/08 12:20:03;;;;;;;0.00;0.00;;;18.10;99.90;;;;;;5022642;28;20502;-72
2022/09/08 12:22:48;;;;;;;0.00;0.00;;;18.00;99.90;;;;;;5054620;28;20464;-74
2022/09/08 12:25:30;;;;;;;0.00;0.00;;;18.00;99.90;;;;;;5046767;28;20474;-74
2022/09/08 12:28:51;;;;;;;0.00;0.00;;;18.00;99.90;;;;;;5050362;28;20727;-74
2022/09/08 12:31:32;;;;;;;0.00;0.00;;;17.90;99.90;;;;;;5056079;28;20448;-72
2022/09/08 12:34:30;;;;;;;0.00;0.00;;;17.80;99.90;;;;;;5052432;28;20841;-73
2022/09/08 12:37:12;;;;;;;0.00;0.00;;;17.80;99.90;;;;;;5044508;28;20826;-74
2022/09/08 12:40:09;;;;;;;0.00;0.00;;;17.70;99.90;;;;;;5043518;28;20546;-74
2022/09/08 12:43:00;;;;;;;0.00;0.00;;;17.60;99.90;;;;;;5051683;28;20460;-72
2022/09/08 12:45:47;;;;;;;0.00;0.00;;;17.60;99.90;;;;;;5045563;28;20530;-72
2022/09/08 12:48:26;;;;;;;0.00;0.00;;;17.60;99.90;;;;;;5048232;28;20476;-71
2022/09/08 12:51:06;;;;;;;0.00;0.00;;;17.60;99.90;;;;;;5046011;28;20437;-75
2022/09/08 12:53:57;;;;;;;0.00;0.00;;;17.50;99.90;;;;;;5061178;28;20583;-74
2022/09/08 12:56:35;;;;;;;0.00;0.00;;;17.50;99.90;;;;;;5060416;28;20448;-74
2022/09/08 12:59:15;;;;;;;0.00;0.00;;;17.40;99.90;;;;;;5046953;28;20492;-75
2022/09/08 13:01:49;;;;;;;0.00;0.00;;;17.30;99.90;;;;;;5060171;28;20462;-75
2022/09/08 13:04:38;;;;;;;0.00;0.00;;;17.30;99.90;;;;;;5056000;28;20467;-75
2022/09/08 13:07:18;;;;;;;0.00;0.00;;;17.30;99.90;;;;;;5021479;28;20446;-75
2022/09/08 13:10:03;;;;;;;0.00;0.00;;;17.30;99.90;;;;;;5059280;28;20468;-75
2022/09/08 13:12:50;;;;;;;0.00;0.00;;;17.30;99.90;;;;;;5051556;28;20575;-74
2022/09/08 13:15:41;;;;;;;0.00;0.00;;;17.30;99.90;;;;;;5060525;28;20438;-74
2022/09/08 13:18:21;;;;;;;0.00;0.00;;;17.30;99.90;;;;;;5048699;28;20694;-74
2022/09/08 13:20:54;;;;;;;0.00;0.00;;;17.20;99.90;;;;;;5039381;28;20504;-75
2022/09/08 13:23:34;;;;;;;0.00;0.00;;;17.30;99.90;;;;;;5039670;28;20463;-75
2022/09/08 13:26:24;;;;;;;0.00;0.00;;;17.20;99.90;;;;;;5039799;28;20976;-75
2022/09/08 13:29:06;;;;;;;0.00;0.00;;;17.20;99.90;;;;;;5039476;28;20817;-74
2022/09/08 13:32:02;;;;;;;0.00;0.00;;;17.10;99.90;;;;;;5039661;28;20444;-74
2022/09/08 13:34:53;;;;;;;0.00;0.00;;;17.10;99.90;;;;;;5018946;28;20886;-74
2022/09/08 13:37:54;;;;;;;0.00;0.00;;;17.00;99.90;;;;;;5019622;28;20840;-74
2022/09/08 13:40:44;;;;;;;0.00;0.00;;;17.00;99.90;;;;;;5019244;28;20489;-74
2022/09/08 13:43:24;;;;;;;0.00;0.00;;;16.90;99.90;;;;;;5023045;28;20449;-75
2022/09/08 13:46:00;;;;;;;0.00;0.00;;;16.90;99.90;;;;;;5021070;28;20481;-75
2022/09/08 13:48:48;;;;;;;0.00;0.00;;;16.90;99.90;;;;;;5021951;28;20798;-75
2022/09/08 13:51:32;;;;;;;0.00;0.00;;;16.90;99.90;;;;;;5040787;28;20818;-71
2022/09/08 13:54:43;;;;;;;0.00;0.00;;;16.90;99.90;;;;;;5049055;28;20453;-71
2022/09/08 13:57:34;;;;;;;0.00;0.00;;;16.80;99.90;;;;;;5036384;28;20878;-71
2022/09/08 14:00:08;;;;;;;0.00;0.00;;;16.80;99.90;;;;;;5047778;28;20479;-71
2022/09/08 14:02:47;;;;;;;0.00;0.00;;;16.80;99.90;;;;;;5043819;28;20451;-71
2022/09/08 14:05:27;;;;;;;0.00;0.00;;;16.70;99.90;;;;;;5044530;28;20471;-72
2022/09/08 14:08:02;;;;;;;0.00;0.00;;;16.80;99.90;;;;;;5038329;28;20725;-71
2022/09/08 14:10:50;;;;;;;0.00;0.00;;;16.70;99.90;;;;;;5042621;28;20901;-71
2022/09/08 14:13:31;;;;;;;0.00;0.00;;;16.70;99.90;;;;;;5046034;28;20467;-72
2022/09/08 14:16:18;;;;;;;0.00;0.00;;;16.70;99.90;;;;;;5040922;28;20446;-70